Rumsey, California
Current Conditions -  °F | °C
As of 12:15 PM on Sunday 23 Nov 2014 (Local Time) from KEDU Reporting Station
Clear Clear  
Wind Chill: 59°   Ceiling: Unl
Heat Index: 59°   Visibility: 10mi
Dew Point: 39°   Wind: 13mph
Humidity: 48%   Direction: 340°NNW
Pressure: 30.3"   Gusts: 17mph
Location:  38.89°N, 122.24°W
Report Text: KEDU 232015Z AUTO 34011G15KT 10SM CLR 15/04 A3030 RMK AO1
Loading
Personal Weather Stations






























Interactive Weather Map New forecast layout! Learn more

10-Day Weather Forecast

Advertisements
Track Severe Weather on mobile